Terminal Aerodrome Forecast
Issued by NWS Mobile, AL

Home | Current Version | Previous Version | Text Only | Print | Product List | Glossary On
Versions: 1 2 3 4 5 6 7 8 9 10 11 12 13 14 15 16 17 18
000
FTUS44 KMOB 200520
TAFPNS
TAF
KPNS 200520Z 2006/2106 VRB04KT 6SM BR FEW010 SCT250
      TEMPO 2006/2009 2SM BR SCT010 SCT250
     FM200900 05004KT 2SM BR BKN009
     FM201300 09004KT 5SM BR BKN012
     FM201500 11008KT P6SM FEW014 BKN250=

USA.gov is the U.S. government's official web portal to all federal, state and local government web resources and services.